Time;durP1;ratioP1;P1;durP2;ratioP2;P2;SDS_P1;SDS_P2;PMS_P1;PMS_P2;Temp;Humidity;BMP_temperature;BMP_pressure;BME280_temperature;BME280_humidity;BME280_pressure;Samples;Min_cycle;Max_cycle;Signal;HPM_P1;HPM_P2
2021/11/30 00:01:52;;;;;;;2.25;0.70;;;20.00;51.80;;;;;;6150063;22;89006;-63
2021/11/30 00:04:18;;;;;;;1.67;0.73;;;20.00;51.90;;;;;;6148154;22;88006;-64
2021/11/30 00:06:47;;;;;;;3.20;0.73;;;20.00;51.90;;;;;;6147576;22;88354;-62
2021/11/30 00:12:07;;;;;;;3.60;0.80;;;19.90;52.00;;;;;;6148406;22;88428;-62
2021/11/30 00:14:35;;;;;;;3.67;1.00;;;19.90;52.10;;;;;;6146819;22;93225;-63
2021/11/30 00:17:02;;;;;;;3.28;0.80;;;19.90;52.10;;;;;;6149247;22;87046;-62
2021/11/30 00:19:28;;;;;;;2.00;0.85;;;19.80;52.10;;;;;;6147270;22;88242;-63
2021/11/30 00:21:54;;;;;;;3.85;0.90;;;19.90;52.20;;;;;;6147447;22;91157;-63
2021/11/30 00:24:21;;;;;;;3.10;0.90;;;19.80;52.20;;;;;;6146788;22;91115;-62
2021/11/30 00:26:47;;;;;;;1.83;0.70;;;19.80;52.30;;;;;;6147200;22;88494;-62
2021/11/30 00:29:13;;;;;;;6.25;1.00;;;19.70;52.30;;;;;;6148105;22;87389;-62
2021/11/30 00:31:38;;;;;;;1.10;0.82;;;19.80;52.40;;;;;;6147733;22;88499;-63
2021/11/30 00:34:05;;;;;;;2.22;0.90;;;19.80;52.50;;;;;;6147680;22;87915;-62
2021/11/30 00:36:30;;;;;;;1.85;0.70;;;19.70;52.50;;;;;;6147746;22;87713;-62
2021/11/30 00:38:56;;;;;;;2.28;0.60;;;19.70;52.50;;;;;;6146821;22;90029;-63
2021/11/30 00:41:22;;;;;;;1.70;0.70;;;19.70;52.60;;;;;;6147717;22;87650;-62
2021/11/30 00:43:48;;;;;;;2.20;0.80;;;19.70;52.60;;;;;;6148436;22;86767;-63
2021/11/30 00:48:40;;;;;;;1.65;0.80;;;19.60;52.70;;;;;;6148921;22;87218;-63
2021/11/30 00:51:11;;;;;;;2.17;0.77;;;19.60;52.90;;;;;;6147851;22;88357;-62
2021/11/30 00:53:38;;;;;;;2.88;0.82;;;19.60;52.90;;;;;;6147039;22;91169;-62
2021/11/30 00:56:04;;;;;;;2.65;1.00;;;19.60;52.90;;;;;;6146134;22;87591;-63
2021/11/30 00:58:31;;;;;;;1.00;0.70;;;19.50;53.00;;;;;;6146773;22;87498;-62
2021/11/30 01:00:56;;;;;;;1.45;0.77;;;19.50;53.00;;;;;;6147093;22;91209;-63
2021/11/30 01:03:22;;;;;;;1.80;0.88;;;19.50;53.10;;;;;;6147597;22;88196;-62
2021/11/30 01:05:48;;;;;;;1.25;0.50;;;19.50;53.10;;;;;;6147971;22;87779;-62
2021/11/30 01:08:13;;;;;;;1.27;0.88;;;19.50;53.20;;;;;;6148967;22;86620;-62
2021/11/30 01:10:39;;;;;;;4.05;1.00;;;19.40;53.20;;;;;;6147509;22;87887;-62
2021/11/30 01:13:05;;;;;;;1.27;0.60;;;19.40;53.30;;;;;;6147464;22;88313;-63
2021/11/30 01:15:31;;;;;;;2.40;0.88;;;19.40;53.30;;;;;;6147614;22;89447;-62
2021/11/30 01:17:57;;;;;;;3.05;0.93;;;19.40;53.30;;;;;;6147112;22;88167;-62
2021/11/30 01:20:24;;;;;;;1.67;0.60;;;19.40;53.40;;;;;;6147756;22;88052;-61
2021/11/30 01:22:52;;;;;;;2.47;0.60;;;19.40;53.40;;;;;;6148160;22;88307;-62
2021/11/30 01:25:17;;;;;;;3.00;0.63;;;19.40;53.50;;;;;;6148390;22;87879;-62
2021/11/30 01:27:43;;;;;;;1.70;0.98;;;19.30;54.00;;;;;;6147452;22;87489;-62
2021/11/30 01:30:09;;;;;;;4.55;1.15;;;19.30;53.60;;;;;;6149092;22;87515;-64
2021/11/30 01:32:36;;;;;;;2.63;0.80;;;19.30;53.60;;;;;;6148265;22;90379;-62
2021/11/30 01:35:02;;;;;;;3.25;0.70;;;19.30;53.60;;;;;;6148536;22;87340;-62
2021/11/30 01:37:28;;;;;;;1.13;0.57;;;19.30;53.60;;;;;;6150037;22;87829;-61
2021/11/30 01:39:54;;;;;;;1.90;0.80;;;19.20;53.60;;;;;;6148158;22;90071;-61
2021/11/30 01:42:20;;;;;;;3.60;0.90;;;19.20;53.70;;;;;;6148892;22;92048;-62
2021/11/30 01:44:52;;;;;;;2.45;0.70;;;19.20;53.70;;;;;;6149783;22;87333;-61
2021/11/30 01:49:55;;;;;;;2.22;0.80;;;19.20;54.30;;;;;;6149298;22;88023;-62
2021/11/30 01:52:21;;;;;;;2.55;0.68;;;19.20;53.90;;;;;;6147699;22;89073;-63
2021/11/30 01:54:50;;;;;;;1.77;0.85;;;19.20;53.90;;;;;;6148307;22;87675;-63
2021/11/30 01:57:18;;;;;;;2.08;0.70;;;19.10;53.90;;;;;;6149320;22;86912;-63
2021/11/30 01:59:44;;;;;;;5.00;1.00;;;19.10;54.00;;;;;;6148213;22;91055;-63
2021/11/30 02:02:11;;;;;;;1.52;0.70;;;19.10;54.00;;;;;;6148052;22;87943;-63
2021/11/30 02:04:37;;;;;;;0.93;0.55;;;19.10;54.00;;;;;;6147871;22;88498;-62
2021/11/30 02:07:04;;;;;;;2.20;0.70;;;19.10;54.00;;;;;;6148733;22;87840;-62
2021/11/30 02:09:30;;;;;;;1.67;0.82;;;19.10;54.00;;;;;;6148229;22;91102;-63
2021/11/30 02:11:56;;;;;;;3.22;0.75;;;19.10;54.10;;;;;;6148155;22;88709;-64
2021/11/30 02:14:24;;;;;;;1.23;0.80;;;19.10;54.10;;;;;;6149888;22;87859;-61
2021/11/30 02:16:50;;;;;;;3.17;0.75;;;19.10;54.10;;;;;;6148054;22;90120;-62
2021/11/30 02:19:16;;;;;;;2.33;0.60;;;19.10;54.10;;;;;;6148592;22;88375;-62
2021/11/30 02:21:42;;;;;;;1.77;0.60;;;19.00;54.10;;;;;;6149082;22;90850;-62
2021/11/30 02:24:09;;;;;;;0.93;0.52;;;19.00;54.10;;;;;;6147866;22;87935;-63
2021/11/30 02:26:37;;;;;;;1.48;0.77;;;19.00;54.20;;;;;;6147404;22;88502;-63
2021/11/30 02:29:04;;;;;;;1.88;0.93;;;19.00;54.70;;;;;;6147578;22;90189;-62
2021/11/30 02:31:41;;;;;;;1.60;0.90;;;19.00;54.20;;;;;;6149583;22;90112;-62
2021/11/30 02:34:06;;;;;;;1.92;0.68;;;19.00;54.20;;;;;;6148719;22;86958;-62
2021/11/30 02:36:37;;;;;;;2.15;0.68;;;19.00;54.30;;;;;;6149320;22;87646;-63
2021/11/30 02:39:07;;;;;;;1.58;0.70;;;19.00;54.30;;;;;;6147745;22;88937;-62
2021/11/30 02:41:34;;;;;;;2.00;0.60;;;18.90;54.30;;;;;;6148953;22;88229;-62
2021/11/30 02:44:00;;;;;;;2.20;0.45;;;19.00;54.40;;;;;;6149346;22;87484;-63
2021/11/30 02:46:56;;;;;;;2.45;0.60;;;19.00;54.30;;;;;;6147537;22;86735;-63
2021/11/30 02:49:27;;;;;;;1.25;0.63;;;18.90;54.30;;;;;;6134451;22;87226;-62
2021/11/30 02:52:02;;;;;;;1.73;0.60;;;19.00;54.90;;;;;;6147478;22;89234;-62
2021/11/30 02:54:28;;;;;;;2.05;0.70;;;18.90;54.30;;;;;;6146775;22;88527;-62
2021/11/30 02:56:58;;;;;;;1.83;0.80;;;18.90;54.30;;;;;;6149134;22;87522;-62
2021/11/30 02:59:26;;;;;;;2.53;0.70;;;18.90;54.40;;;;;;6149449;22;87665;-63
2021/11/30 03:02:01;;;;;;;1.08;0.70;;;18.90;54.30;;;;;;6148425;22;88131;-62
2021/11/30 03:04:28;;;;;;;1.75;0.90;;;18.90;54.40;;;;;;6148271;22;87623;-63
2021/11/30 03:06:55;;;;;;;2.33;0.68;;;18.90;54.40;;;;;;6148021;22;89722;-61
2021/11/30 03:09:22;;;;;;;1.83;0.40;;;18.80;54.40;;;;;;6147202;22;89421;-64
2021/11/30 03:11:49;;;;;;;1.48;0.70;;;18.90;54.40;;;;;;6149946;22;88577;-62
2021/11/30 03:14:16;;;;;;;1.60;0.60;;;18.80;54.40;;;;;;6148282;22;87611;-64
2021/11/30 03:16:44;;;;;;;2.20;0.75;;;18.80;54.50;;;;;;6147657;22;87685;-63
2021/11/30 03:19:10;;;;;;;1.67;0.70;;;18.80;54.40;;;;;;6147393;22;88562;-62
2021/11/30 03:21:36;;;;;;;0.98;0.57;;;18.80;54.50;;;;;;6146623;22;91560;-64
2021/11/30 03:24:02;;;;;;;2.30;0.57;;;18.80;54.50;;;;;;6148046;22;87652;-61
2021/11/30 03:26:28;;;;;;;1.15;0.70;;;18.80;54.50;;;;;;6147990;22;89512;-62
2021/11/30 03:28:54;;;;;;;2.75;0.75;;;18.80;54.60;;;;;;6149730;22;87597;-64
2021/11/30 03:31:35;;;;;;;1.85;0.80;;;18.80;54.50;;;;;;6148161;22;91511;-62
2021/11/30 03:34:03;;;;;;;2.25;0.60;;;18.80;54.60;;;;;;6150365;22;87906;-61
2021/11/30 03:36:33;;;;;;;1.58;0.65;;;18.80;55.10;;;;;;6148616;22;89520;-62
2021/11/30 03:39:03;;;;;;;1.30;0.75;;;18.80;54.60;;;;;;6148759;22;87546;-62
2021/11/30 03:41:31;;;;;;;1.23;0.60;;;18.70;54.50;;;;;;6146200;22;87840;-62
2021/11/30 03:43:57;;;;;;;2.92;0.63;;;18.70;54.50;;;;;;6146938;22;88585;-63
2021/11/30 03:46:23;;;;;;;2.97;0.60;;;18.70;54.60;;;;;;6146825;22;89314;-61
2021/11/30 03:48:49;;;;;;;1.67;0.60;;;18.70;54.60;;;;;;6147198;22;88369;-62
2021/11/30 03:51:15;;;;;;;2.00;0.75;;;18.70;54.60;;;;;;6146813;22;87714;-62
2021/11/30 03:53:40;;;;;;;2.10;0.85;;;18.70;54.60;;;;;;6147895;22;87804;-62
2021/11/30 03:56:06;;;;;;;0.95;0.70;;;18.70;54.60;;;;;;6147724;22;87918;-61
2021/11/30 03:58:32;;;;;;;1.65;0.70;;;18.70;54.60;;;;;;6148683;22;88225;-62
2021/11/30 04:00:58;;;;;;;1.30;0.68;;;18.70;54.70;;;;;;6148925;22;87797;-62
2021/11/30 04:03:26;;;;;;;1.50;0.70;;;18.70;54.70;;;;;;6147917;22;88065;-63
2021/11/30 04:05:52;;;;;;;1.58;0.68;;;18.70;54.70;;;;;;6148965;22;87845;-63
2021/11/30 04:08:18;;;;;;;3.08;0.50;;;18.70;54.70;;;;;;6148645;22;88755;-61
2021/11/30 04:10:43;;;;;;;1.13;0.68;;;18.70;54.70;;;;;;6148898;22;89423;-61
2021/11/30 04:13:11;;;;;;;0.63;0.50;;;18.60;54.60;;;;;;6148150;22;87303;-62
2021/11/30 04:15:37;;;;;;;1.08;0.60;;;18.70;54.60;;;;;;6147719;22;87326;-63
2021/11/30 04:18:02;;;;;;;1.38;0.80;;;18.70;54.60;;;;;;6147847;22;88208;-62
2021/11/30 04:20:31;;;;;;;0.85;0.45;;;18.60;54.60;;;;;;6147256;22;90422;-61
2021/11/30 04:22:57;;;;;;;1.60;0.50;;;18.60;54.60;;;;;;6149162;22;87413;-61
2021/11/30 04:25:22;;;;;;;1.17;0.80;;;18.60;54.60;;;;;;6148361;22;87172;-62
2021/11/30 04:27:48;;;;;;;1.65;0.55;;;18.60;54.60;;;;;;6146362;22;87566;-62
2021/11/30 04:30:14;;;;;;;0.77;0.50;;;18.60;54.60;;;;;;6146914;22;87626;-62
2021/11/30 04:32:40;;;;;;;0.85;0.55;;;18.60;54.50;;;;;;6147081;22;88665;-64
2021/11/30 04:35:07;;;;;;;1.15;0.50;;;18.60;54.50;;;;;;6148574;22;89472;-64
2021/11/30 04:37:33;;;;;;;0.75;0.60;;;18.60;54.50;;;;;;6150369;22;87969;-62
2021/11/30 04:39:58;;;;;;;1.98;0.60;;;18.60;54.50;;;;;;6149301;22;87760;-63
2021/11/30 04:42:27;;;;;;;1.02;0.57;;;18.60;54.50;;;;;;6148130;22;87597;-62
2021/11/30 04:45:04;;;;;;;2.33;0.80;;;18.60;54.50;;;;;;6147383;22;89117;-63
2021/11/30 04:47:32;;;;;;;0.88;0.50;;;18.60;54.50;;;;;;6147855;22;89406;-63
2021/11/30 04:50:01;;;;;;;1.33;0.88;;;18.60;54.50;;;;;;6148294;22;87667;-62
2021/11/30 04:52:27;;;;;;;1.02;0.40;;;18.60;54.50;;;;;;6149215;22;87488;-64
2021/11/30 04:54:53;;;;;;;0.90;0.55;;;18.60;54.50;;;;;;6148870;22;87373;-63
2021/11/30 04:57:19;;;;;;;1.08;0.60;;;18.50;54.40;;;;;;6148365;22;89538;-62
2021/11/30 04:59:44;;;;;;;0.93;0.52;;;18.60;54.50;;;;;;6149207;22;88271;-62
2021/11/30 05:02:10;;;;;;;0.50;0.50;;;18.60;54.40;;;;;;6149643;22;87487;-62
2021/11/30 05:04:37;;;;;;;1.60;0.70;;;18.50;54.40;;;;;;6150289;22;87922;-63
2021/11/30 05:07:03;;;;;;;3.30;0.73;;;18.50;54.40;;;;;;6150380;22;88613;-62
2021/11/30 05:09:29;;;;;;;1.35;0.65;;;18.60;54.40;;;;;;6149263;22;87743;-62
2021/11/30 05:11:54;;;;;;;1.35;0.60;;;18.60;54.50;;;;;;6149954;22;88077;-64
2021/11/30 05:14:20;;;;;;;1.25;0.50;;;18.60;54.50;;;;;;6148206;22;89618;-62
2021/11/30 05:16:46;;;;;;;1.45;0.70;;;18.60;54.40;;;;;;6148447;22;89649;-63
2021/11/30 05:19:11;;;;;;;1.52;0.73;;;18.60;54.40;;;;;;6148811;22;88745;-61
2021/11/30 05:21:37;;;;;;;1.08;0.55;;;18.50;54.40;;;;;;6147930;22;88768;-62
2021/11/30 05:24:05;;;;;;;2.72;0.70;;;18.50;54.40;;;;;;6148981;22;88285;-63
2021/11/30 05:26:31;;;;;;;1.88;0.90;;;18.50;54.40;;;;;;6149889;22;87880;-62
2021/11/30 05:28:57;;;;;;;0.75;0.40;;;18.50;54.40;;;;;;6149459;22;88127;-62
2021/11/30 05:31:23;;;;;;;1.98;0.70;;;18.50;54.40;;;;;;6148377;22;87343;-63
2021/11/30 05:33:49;;;;;;;3.08;0.65;;;18.50;54.40;;;;;;6149175;22;87742;-62
2021/11/30 05:36:17;;;;;;;1.33;0.70;;;18.50;54.40;;;;;;6149341;22;88042;-64
2021/11/30 05:38:43;;;;;;;1.20;0.70;;;18.50;54.40;;;;;;6149624;22;87176;-63
2021/11/30 05:41:09;;;;;;;6.93;1.02;;;18.50;54.40;;;;;;6148873;22;87870;-64
2021/11/30 05:43:34;;;;;;;3.33;0.90;;;18.50;54.40;;;;;;6148923;22;88475;-62
2021/11/30 05:46:02;;;;;;;1.55;0.75;;;18.50;54.40;;;;;;6146731;22;92058;-62
2021/11/30 05:48:30;;;;;;;0.68;0.40;;;18.40;54.40;;;;;;6147274;22;90544;-62
2021/11/30 05:50:56;;;;;;;1.80;0.65;;;18.50;54.50;;;;;;6147917;22;87596;-63
2021/11/30 05:53:22;;;;;;;1.77;0.70;;;18.50;54.40;;;;;;6148543;22;88497;-63
2021/11/30 05:55:53;;;;;;;0.95;0.47;;;18.50;54.50;;;;;;6148472;22;89742;-62
2021/11/30 05:58:18;;;;;;;0.70;0.50;;;18.50;54.50;;;;;;6148266;22;88918;-62
2021/11/30 06:00:44;;;;;;;1.38;0.70;;;18.50;54.50;;;;;;6148878;22;87647;-62
2021/11/30 06:03:27;;;;;;;0.88;0.50;;;18.50;54.50;;;;;;6147936;22;87748;-62
2021/11/30 06:05:53;;;;;;;1.25;0.77;;;18.40;54.40;;;;;;6147946;22;91579;-62
2021/11/30 06:08:19;;;;;;;3.25;0.80;;;18.50;54.50;;;;;;6147534;22;89540;-62
2021/11/30 06:10:45;;;;;;;1.33;0.70;;;18.40;54.40;;;;;;6148493;22;88336;-63
2021/11/30 06:13:12;;;;;;;0.95;0.60;;;18.40;54.40;;;;;;6147973;22;87090;-63
2021/11/30 06:15:38;;;;;;;3.47;0.85;;;18.40;54.40;;;;;;6148138;22;90369;-62
2021/11/30 06:18:04;;;;;;;1.05;0.60;;;18.50;54.50;;;;;;6148616;22;87715;-62
2021/11/30 06:20:30;;;;;;;0.60;0.50;;;18.40;54.50;;;;;;6149747;22;88336;-62
2021/11/30 06:22:56;;;;;;;1.48;0.80;;;18.40;54.50;;;;;;6148522;22;87800;-62
2021/11/30 06:25:22;;;;;;;1.63;0.80;;;18.40;54.60;;;;;;6149162;22;88522;-63
2021/11/30 06:27:47;;;;;;;1.02;0.60;;;18.50;54.60;;;;;;6148214;22;90624;-62
2021/11/30 06:30:13;;;;;;;1.40;0.65;;;18.60;54.40;;;;;;6148591;22;87820;-62
2021/11/30 06:32:39;;;;;;;1.33;0.60;;;18.60;54.30;;;;;;6148306;22;87909;-63
2021/11/30 06:35:06;;;;;;;3.55;0.80;;;18.70;54.30;;;;;;6147494;22;89216;-63
2021/11/30 06:37:33;;;;;;;1.73;0.75;;;18.80;54.30;;;;;;6147004;22;90212;-64
2021/11/30 06:39:58;;;;;;;1.17;0.77;;;18.80;54.30;;;;;;6148829;22;87831;-61
2021/11/30 06:42:25;;;;;;;1.38;0.85;;;18.90;54.30;;;;;;6149387;22;87376;-61
2021/11/30 06:44:51;;;;;;;1.90;0.50;;;19.00;54.30;;;;;;6148059;22;90860;-63
2021/11/30 06:47:17;;;;;;;0.80;0.50;;;19.10;54.30;;;;;;6149847;22;87362;-62
2021/11/30 06:49:43;;;;;;;0.50;0.50;;;19.10;54.20;;;;;;6147857;22;87757;-64
2021/11/30 06:52:09;;;;;;;0.88;0.52;;;19.20;54.20;;;;;;6149524;22;86868;-62
2021/11/30 06:54:35;;;;;;;1.63;0.60;;;19.20;54.40;;;;;;6147929;22;89175;-61
2021/11/30 06:57:00;;;;;;;5.40;0.60;;;19.30;54.50;;;;;;6148182;22;89483;-61
2021/11/30 06:59:29;;;;;;;1.58;0.63;;;19.40;54.50;;;;;;6148558;22;88457;-61
2021/11/30 07:01:54;;;;;;;2.75;0.52;;;19.50;54.50;;;;;;6148442;22;86967;-62
2021/11/30 07:04:21;;;;;;;5.30;0.70;;;19.50;54.50;;;;;;6149390;22;87617;-62
2021/11/30 07:09:22;;;;;;;1.63;0.40;;;19.60;54.50;;;;;;6148650;22;87428;-62
2021/11/30 07:14:16;;;;;;;3.13;0.60;;;19.70;54.40;;;;;;6149061;22;88076;-62
2021/11/30 07:16:41;;;;;;;3.22;0.70;;;19.80;54.40;;;;;;6147795;22;91369;-62
2021/11/30 07:19:07;;;;;;;13.98;0.93;;;19.80;54.30;;;;;;6147149;22;87652;-62
2021/11/30 07:21:33;;;;;;;2.58;0.70;;;19.90;54.20;;;;;;6147671;22;87832;-63
2021/11/30 07:23:59;;;;;;;1.65;0.73;;;19.90;54.10;;;;;;6147661;22;89124;-63
2021/11/30 07:26:26;;;;;;;1.90;0.50;;;20.00;54.10;;;;;;6147724;22;91877;-63
2021/11/30 07:28:51;;;;;;;3.22;0.90;;;20.00;54.00;;;;;;6150034;22;87039;-63
2021/11/30 07:31:18;;;;;;;4.57;0.60;;;20.10;53.90;;;;;;6148065;22;87640;-62
2021/11/30 07:33:47;;;;;;;0.82;0.57;;;20.10;53.70;;;;;;6147395;22;88153;-62
2021/11/30 07:36:14;;;;;;;2.50;0.60;;;20.20;53.70;;;;;;6147879;22;87928;-63
2021/11/30 07:38:42;;;;;;;3.35;0.73;;;20.20;53.60;;;;;;6147042;22;87801;-64
2021/11/30 07:41:08;;;;;;;1.33;0.60;;;20.20;53.50;;;;;;6148093;22;90204;-64
2021/11/30 07:43:35;;;;;;;4.82;0.80;;;20.20;53.40;;;;;;6148532;22;88849;-62
2021/11/30 07:46:00;;;;;;;708.03;114.78;;;20.30;53.40;;;;;;6147788;22;89389;-62
2021/11/30 07:48:27;;;;;;;174.38;24.10;;;20.30;53.40;;;;;;6145236;22;88715;-65
2021/11/30 07:50:55;;;;;;;137.23;16.90;;;20.30;53.60;;;;;;6146462;22;87940;-62
2021/11/30 07:53:21;;;;;;;49.13;9.38;;;20.30;53.80;;;;;;6147479;22;88219;-61
2021/11/30 07:55:47;;;;;;;64.32;8.68;;;20.30;53.90;;;;;;6148414;22;87596;-62
2021/11/30 07:58:12;;;;;;;51.45;8.07;;;20.30;53.90;;;;;;6147349;22;87120;-69
2021/11/30 08:00:38;;;;;;;36.88;5.65;;;20.40;53.80;;;;;;6147958;22;89704;-60
2021/11/30 08:03:05;;;;;;;35.15;5.18;;;20.40;53.60;;;;;;6147486;22;88718;-67
2021/11/30 08:05:34;;;;;;;28.83;5.43;;;20.40;53.40;;;;;;6148408;22;89069;-64
2021/11/30 08:08:00;;;;;;;24.10;5.22;;;20.50;53.20;;;;;;6149919;22;87340;-62
2021/11/30 08:10:28;;;;;;;21.30;3.88;;;20.50;53.10;;;;;;6148671;22;87903;-62
2021/11/30 08:12:54;;;;;;;28.10;4.90;;;20.50;53.10;;;;;;6147119;22;92474;-58
2021/11/30 08:15:20;;;;;;;24.40;4.43;;;20.50;53.10;;;;;;6147647;22;89685;-60
2021/11/30 08:17:46;;;;;;;22.75;4.35;;;20.50;53.10;;;;;;6149131;22;87727;-60
2021/11/30 08:20:13;;;;;;;20.85;4.55;;;20.40;53.10;;;;;;6138554;22;87779;-70
2021/11/30 08:22:41;;;;;;;18.85;4.28;;;20.50;53.20;;;;;;6145787;22;91216;-61
2021/11/30 08:25:08;;;;;;;21.98;3.83;;;20.50;53.10;;;;;;6147353;22;88879;-61
2021/11/30 08:27:33;;;;;;;19.33;4.15;;;20.50;53.10;;;;;;6147299;22;87615;-60
2021/11/30 08:29:59;;;;;;;20.83;4.60;;;20.50;53.00;;;;;;6148758;22;86763;-59
2021/11/30 08:32:26;;;;;;;20.52;3.85;;;20.50;53.00;;;;;;6080267;22;88955;-62
2021/11/30 08:34:54;;;;;;;18.38;3.78;;;20.60;53.00;;;;;;6167445;22;87777;-63
2021/11/30 08:37:21;;;;;;;22.48;3.60;;;20.60;52.80;;;;;;6147556;22;88436;-61
2021/11/30 08:39:52;;;;;;;14.52;3.05;;;20.60;52.70;;;;;;6148333;22;87047;-61
2021/11/30 08:42:19;;;;;;;13.05;2.63;;;20.70;52.50;;;;;;6146865;22;90327;-60
2021/11/30 08:44:46;;;;;;;16.42;3.55;;;20.70;52.30;;;;;;6146901;22;90909;-62
2021/11/30 08:47:14;;;;;;;17.75;3.03;;;20.80;52.30;;;;;;6149734;22;87246;-60
2021/11/30 08:49:40;;;;;;;9.98;3.30;;;20.80;52.10;;;;;;6148959;22;88739;-62
2021/11/30 08:52:11;;;;;;;9.63;2.55;;;20.80;52.00;;;;;;6146588;22;88652;-62
2021/11/30 08:54:37;;;;;;;9.40;2.40;;;20.80;51.90;;;;;;6150695;22;87250;-60
2021/11/30 08:57:04;;;;;;;12.10;2.75;;;20.80;51.90;;;;;;6148289;22;87656;-61
2021/11/30 08:59:30;;;;;;;10.07;2.22;;;20.80;51.80;;;;;;6147767;22;88876;-59
2021/11/30 09:01:55;;;;;;;11.02;2.60;;;20.80;51.70;;;;;;6147002;22;91405;-64
2021/11/30 09:04:21;;;;;;;10.55;2.38;;;20.80;51.70;;;;;;6149578;22;88881;-64
2021/11/30 09:06:47;;;;;;;9.10;2.50;;;20.80;51.70;;;;;;6148533;22;87537;-63
2021/11/30 09:09:14;;;;;;;10.52;2.03;;;20.80;51.70;;;;;;6148070;22;87638;-64
2021/11/30 09:11:40;;;;;;;6.35;1.83;;;20.80;52.00;;;;;;6149082;22;89085;-64
2021/11/30 09:14:08;;;;;;;7.35;1.73;;;20.70;52.10;;;;;;6143351;22;88806;-63
2021/11/30 09:16:35;;;;;;;8.20;2.20;;;20.70;52.30;;;;;;6146670;22;87986;-67
2021/11/30 09:19:01;;;;;;;8.07;1.42;;;20.70;52.50;;;;;;6143954;22;90176;-65
2021/11/30 09:21:27;;;;;;;7.20;1.73;;;20.70;52.90;;;;;;6147034;22;89176;-60
2021/11/30 09:23:55;;;;;;;5.90;1.85;;;20.70;53.10;;;;;;6147341;22;88277;-70
2021/11/30 09:26:21;;;;;;;8.07;2.33;;;20.70;53.30;;;;;;6147179;22;88447;-65
2021/11/30 09:28:46;;;;;;;4.38;1.13;;;20.70;53.40;;;;;;6149449;22;87853;-65
2021/11/30 09:31:13;;;;;;;7.85;1.80;;;20.70;53.50;;;;;;6149203;22;88741;-62
2021/11/30 09:33:40;;;;;;;6.07;1.65;;;20.70;53.60;;;;;;6146955;22;88806;-59
2021/11/30 09:36:06;;;;;;;4.13;1.20;;;20.70;53.60;;;;;;6148467;22;87213;-61
2021/11/30 09:38:32;;;;;;;5.25;1.52;;;20.80;53.70;;;;;;6146495;22;90513;-64
2021/11/30 09:41:01;;;;;;;6.47;1.33;;;20.80;53.80;;;;;;6148145;22;88235;-62
2021/11/30 09:43:28;;;;;;;5.80;1.60;;;20.80;53.90;;;;;;6149318;22;87700;-62
2021/11/30 09:45:56;;;;;;;7.32;1.27;;;20.70;54.00;;;;;;6149840;22;87440;-62
2021/11/30 09:48:22;;;;;;;7.88;1.30;;;20.70;54.00;;;;;;6148682;22;87200;-63
2021/11/30 09:50:48;;;;;;;5.15;1.20;;;20.70;54.10;;;;;;6148482;22;88865;-64
2021/11/30 09:53:15;;;;;;;4.43;1.20;;;20.70;54.20;;;;;;6149038;22;88664;-59
2021/11/30 09:55:41;;;;;;;4.85;1.45;;;20.70;54.30;;;;;;6148715;22;87287;-59
2021/11/30 09:58:08;;;;;;;4.28;1.35;;;20.70;54.20;;;;;;6148162;22;87569;-59
2021/11/30 10:00:36;;;;;;;3.30;1.45;;;20.70;54.20;;;;;;6148259;22;87755;-59
2021/11/30 10:03:01;;;;;;;6.78;0.90;;;20.70;54.20;;;;;;6146294;22;88329;-59
2021/11/30 10:05:28;;;;;;;2.97;1.08;;;20.70;54.10;;;;;;6148765;22;87537;-59
2021/11/30 10:07:55;;;;;;;3.83;1.42;;;20.70;54.00;;;;;;6147384;22;87028;-61
2021/11/30 10:10:29;;;;;;;6.50;1.23;;;20.70;54.00;;;;;;6147434;22;87937;-61
2021/11/30 10:13:10;;;;;;;3.50;1.30;;;20.70;54.30;;;;;;6148368;22;88191;-63
2021/11/30 10:15:45;;;;;;;5.43;0.88;;;20.70;54.40;;;;;;6148265;22;89015;-59
2021/11/30 10:18:17;;;;;;;4.00;1.10;;;20.70;54.60;;;;;;6149197;22;87714;-62
2021/11/30 10:20:45;;;;;;;3.88;1.17;;;20.70;54.50;;;;;;6148846;22;87915;-63
2021/11/30 10:23:12;;;;;;;5.63;1.40;;;20.80;54.70;;;;;;6148679;22;87800;-63
2021/11/30 10:25:40;;;;;;;4.80;1.33;;;20.80;54.90;;;;;;6147284;22;87611;-64
2021/11/30 10:28:09;;;;;;;5.47;1.67;;;20.80;55.10;;;;;;6146687;22;87676;-69
2021/11/30 10:30:39;;;;;;;6.20;1.42;;;20.80;55.10;;;;;;6148283;22;88229;-66
2021/11/30 10:33:16;;;;;;;7.32;1.77;;;20.80;55.50;;;;;;6146780;22;91138;-63
2021/11/30 10:35:43;;;;;;;4.82;1.35;;;20.80;55.50;;;;;;6147540;22;87449;-63
2021/11/30 10:38:10;;;;;;;4.97;1.10;;;20.80;55.60;;;;;;6147052;22;88591;-63
2021/11/30 10:40:39;;;;;;;7.43;1.00;;;20.90;55.70;;;;;;6146795;22;90150;-63
2021/11/30 10:43:10;;;;;;;6.07;1.33;;;20.90;55.70;;;;;;6147984;22;90139;-63
2021/11/30 10:45:48;;;;;;;3.30;0.95;;;20.80;55.80;;;;;;6148976;22;87438;-63
2021/11/30 10:48:20;;;;;;;4.97;1.60;;;20.90;56.00;;;;;;6148349;22;87659;-62
2021/11/30 10:50:47;;;;;;;5.72;1.00;;;20.80;56.10;;;;;;6147092;22;88049;-63
2021/11/30 10:53:19;;;;;;;3.05;1.00;;;20.80;56.10;;;;;;6146035;22;89239;-72
2021/11/30 10:55:48;;;;;;;2.80;0.93;;;20.90;56.20;;;;;;6148862;22;87907;-61
2021/11/30 10:58:14;;;;;;;3.22;1.40;;;20.80;56.30;;;;;;6149688;22;86634;-62
2021/11/30 11:00:41;;;;;;;2.88;1.13;;;20.90;56.30;;;;;;6147651;22;88002;-62
2021/11/30 11:03:13;;;;;;;3.50;1.13;;;20.80;56.20;;;;;;6147556;22;87849;-61
2021/11/30 11:08:50;;;;;;;6.45;1.45;;;20.90;56.20;;;;;;6148751;22;87891;-63
2021/11/30 11:11:22;;;;;;;3.70;1.10;;;20.90;56.00;;;;;;6147350;22;91276;-61
2021/11/30 11:13:48;;;;;;;3.45;1.00;;;20.90;56.00;;;;;;6148708;22;87563;-61
2021/11/30 11:16:33;;;;;;;6.80;1.58;;;20.80;55.90;;;;;;6148573;22;87844;-61
2021/11/30 11:19:01;;;;;;;2.40;0.90;;;20.80;55.90;;;;;;6147436;22;86900;-61
2021/11/30 11:21:30;;;;;;;3.67;1.52;;;20.80;55.80;;;;;;6148241;22;88766;-62
2021/11/30 11:24:12;;;;;;;2.90;0.80;;;20.80;55.80;;;;;;6147955;22;87117;-61
2021/11/30 11:26:40;;;;;;;3.03;1.00;;;20.80;55.80;;;;;;6148301;22;87155;-65
2021/11/30 11:29:18;;;;;;;3.05;1.00;;;20.80;56.00;;;;;;6147860;22;90162;-62
2021/11/30 11:31:53;;;;;;;4.43;0.95;;;20.80;56.10;;;;;;6147415;22;89275;-64
2021/11/30 11:34:21;;;;;;;3.35;0.85;;;20.80;57.00;;;;;;6148862;22;88266;-67
2021/11/30 11:36:49;;;;;;;2.47;0.70;;;20.80;56.80;;;;;;6149429;22;86996;-66
2021/11/30 11:39:18;;;;;;;3.05;0.70;;;20.80;56.90;;;;;;6147259;22;89956;-69
2021/11/30 11:41:47;;;;;;;3.80;0.75;;;20.70;57.00;;;;;;6148100;22;88887;-66
2021/11/30 11:44:13;;;;;;;1.27;0.80;;;20.80;57.30;;;;;;6148118;22;87951;-66
2021/11/30 11:46:40;;;;;;;3.85;1.25;;;20.80;57.50;;;;;;6147563;22;87589;-67
2021/11/30 11:49:09;;;;;;;2.90;0.70;;;20.80;57.60;;;;;;6148192;22;87353;-68
2021/11/30 11:51:46;;;;;;;3.88;0.80;;;20.80;57.60;;;;;;6148419;22;88123;-67
2021/11/30 11:54:29;;;;;;;2.15;0.60;;;20.80;57.80;;;;;;6147412;22;87770;-65
2021/11/30 11:57:23;;;;;;;2.60;0.90;;;20.80;57.90;;;;;;6146532;22;88371;-65
2021/11/30 11:59:49;;;;;;;3.65;0.90;;;20.80;58.10;;;;;;6145576;22;87386;-65
2021/11/30 12:02:20;;;;;;;2.67;1.00;;;20.70;58.20;;;;;;6146281;22;88895;-66
2021/11/30 12:04:51;;;;;;;3.55;0.93;;;20.80;58.30;;;;;;6146096;22;87286;-65
2021/11/30 12:07:18;;;;;;;2.90;0.95;;;20.80;58.40;;;;;;6148268;22;87520;-68
2021/11/30 12:09:44;;;;;;;2.53;1.02;;;20.80;58.50;;;;;;6148548;22;87484;-67
2021/11/30 12:12:10;;;;;;;1.35;0.63;;;20.80;58.60;;;;;;6146428;22;88086;-65
2021/11/30 12:14:41;;;;;;;3.55;1.02;;;20.80;58.70;;;;;;6146811;22;87817;-64
2021/11/30 12:17:07;;;;;;;3.55;0.90;;;20.80;58.70;;;;;;6148054;22;87651;-65
2021/11/30 12:19:37;;;;;;;2.10;0.98;;;20.90;58.70;;;;;;6148062;22;87503;-64
2021/11/30 12:22:04;;;;;;;3.30;0.90;;;20.90;58.80;;;;;;6147119;22;88440;-63
2021/11/30 12:24:47;;;;;;;2.63;0.60;;;20.90;58.80;;;;;;6147550;22;88780;-62
2021/11/30 12:27:18;;;;;;;3.40;1.08;;;20.90;58.80;;;;;;6147678;22;87060;-67
2021/11/30 12:29:45;;;;;;;4.82;1.35;;;20.90;59.00;;;;;;6147035;22;87741;-67
2021/11/30 12:32:30;;;;;;;2.25;0.68;;;20.90;59.10;;;;;;6148032;22;87482;-63
2021/11/30 12:35:00;;;;;;;2.10;0.80;;;20.90;59.10;;;;;;6147379;22;87852;-62
2021/11/30 12:37:31;;;;;;;1.95;0.73;;;20.90;59.10;;;;;;6146049;22;87644;-63
2021/11/30 12:40:11;;;;;;;2.30;0.85;;;21.00;59.30;;;;;;6147250;22;86883;-64
2021/11/30 12:42:44;;;;;;;3.90;1.08;;;21.00;59.20;;;;;;6145917;22;88305;-64
2021/11/30 12:45:12;;;;;;;1.92;0.73;;;21.00;59.30;;;;;;6145974;22;89145;-64
2021/11/30 12:47:38;;;;;;;2.50;0.75;;;21.00;59.40;;;;;;6148088;22;88410;-64
2021/11/30 12:50:26;;;;;;;2.55;0.63;;;21.00;59.50;;;;;;6147883;22;88008;-63
2021/11/30 12:53:04;;;;;;;3.45;0.80;;;21.00;59.50;;;;;;6145069;22;87555;-63
2021/11/30 12:55:47;;;;;;;2.53;0.90;;;21.00;59.60;;;;;;6146557;22;90275;-63
2021/11/30 12:58:39;;;;;;;3.05;0.68;;;21.00;59.50;;;;;;6145213;22;87826;-64
2021/11/30 13:01:11;;;;;;;1.52;0.60;;;21.00;59.60;;;;;;6147355;22;87835;-64
2021/11/30 13:03:37;;;;;;;2.77;0.60;;;21.00;59.70;;;;;;6145885;22;88682;-60
2021/11/30 13:06:03;;;;;;;4.72;0.70;;;21.00;59.80;;;;;;6147308;22;87421;-61